createdAt,value
2023-02-17T00:01:34.627Z,9.80
2023-02-17T00:04:02.623Z,9.90
2023-02-17T00:06:32.778Z,9.80
2023-02-17T00:09:01.990Z,9.90
2023-02-17T00:11:30.476Z,9.90
2023-02-17T00:13:58.206Z,9.90
2023-02-17T00:16:28.608Z,9.90
2023-02-17T00:19:01.915Z,9.90
2023-02-17T00:21:32.797Z,9.90
2023-02-17T00:24:01.261Z,9.80
2023-02-17T00:26:29.460Z,9.90
2023-02-17T00:28:59.456Z,9.80
2023-02-17T00:31:27.516Z,9.80
2023-02-17T00:33:57.086Z,9.80
2023-02-17T00:36:27.759Z,9.80
2023-02-17T00:38:58.238Z,9.80
2023-02-17T00:41:29.055Z,9.70
2023-02-17T00:43:59.172Z,9.80
2023-02-17T00:46:28.297Z,9.70
2023-02-17T00:48:56.306Z,9.80
2023-02-17T00:51:26.140Z,9.90
2023-02-17T00:53:53.915Z,9.90
2023-02-17T00:56:21.640Z,9.90
2023-02-17T00:58:49.524Z,9.90
2023-02-17T01:01:17.669Z,9.80
2023-02-17T01:03:45.401Z,9.90
2023-02-17T01:06:30.121Z,9.90
2023-02-17T01:08:58.091Z,10.00
2023-02-17T01:11:33.667Z,10.00
2023-02-17T01:14:08.643Z,10.10
2023-02-17T01:16:43.997Z,10.00
2023-02-17T01:19:19.572Z,10.00
2023-02-17T01:21:49.478Z,10.00
2023-02-17T01:24:17.226Z,10.00
2023-02-17T01:26:45.137Z,10.00
2023-02-17T01:29:12.814Z,10.00
2023-02-17T01:31:41.612Z,10.00
2023-02-17T01:34:13.001Z,10.00
2023-02-17T01:36:40.859Z,9.90
2023-02-17T01:39:15.928Z,9.90
2023-02-17T01:41:47.790Z,9.90
2023-02-17T01:44:25.660Z,9.90
2023-02-17T01:46:56.737Z,9.90
2023-02-17T01:49:41.786Z,9.90
2023-02-17T01:52:26.771Z,9.90
2023-02-17T01:55:11.282Z,9.90
2023-02-17T01:57:43.706Z,10.00
2023-02-17T02:00:17.553Z,9.90
2023-02-17T02:02:50.846Z,9.90
2023-02-17T02:05:22.357Z,9.90
2023-02-17T02:07:52.476Z,9.80
2023-02-17T02:10:21.050Z,9.80
2023-02-17T02:12:49.008Z,9.80
2023-02-17T02:15:26.600Z,9.80
2023-02-17T02:18:40.376Z,9.80
2023-02-17T02:22:07.265Z,9.90
2023-02-17T02:25:22.229Z,9.80
2023-02-17T02:28:25.636Z,9.90
2023-02-17T02:31:38.192Z,9.90
2023-02-17T02:34:38.759Z,9.90
2023-02-17T02:38:23.806Z,9.90
2023-02-17T02:41:14.440Z,10.00
2023-02-17T02:43:44.066Z,10.00
2023-02-17T02:46:12.289Z,10.00
2023-02-17T02:48:41.685Z,10.00
2023-02-17T02:51:21.440Z,10.00
2023-02-17T02:54:39.261Z,10.00
2023-02-17T02:57:40.635Z,10.00
2023-02-17T03:00:45.976Z,10.00
2023-02-17T03:04:38.118Z,10.00
2023-02-17T03:07:51.475Z,10.00
2023-02-17T03:10:19.542Z,10.00
2023-02-17T03:12:47.605Z,10.10
2023-02-17T03:15:35.366Z,10.20
2023-02-17T03:18:04.978Z,10.20
2023-02-17T03:20:45.725Z,10.20
2023-02-17T03:23:13.575Z,10.20
2023-02-17T03:25:41.672Z,10.20
2023-02-17T03:28:09.493Z,10.30
2023-02-17T03:30:38.282Z,10.20
2023-02-17T03:33:06.421Z,10.30
2023-02-17T03:35:34.299Z,10.40
2023-02-17T03:38:02.300Z,10.30
2023-02-17T03:40:30.336Z,10.30
2023-02-17T03:42:58.722Z,10.30
2023-02-17T03:45:26.944Z,10.30
2023-02-17T03:47:54.808Z,10.30
2023-02-17T03:50:22.707Z,10.30
2023-02-17T03:52:50.368Z,10.30
2023-02-17T03:55:18.579Z,10.40
2023-02-17T03:57:46.165Z,10.50
2023-02-17T04:00:15.649Z,10.50
2023-02-17T04:02:44.262Z,10.50
2023-02-17T04:05:12.929Z,10.50
2023-02-17T04:07:41.085Z,10.50
2023-02-17T04:10:09.900Z,10.50
2023-02-17T04:12:37.825Z,10.60
2023-02-17T04:15:06.754Z,10.60
2023-02-17T04:17:38.158Z,10.50
2023-02-17T04:20:09.155Z,10.50
2023-02-17T04:22:36.946Z,10.50
2023-02-17T04:25:04.912Z,10.50
2023-02-17T04:27:32.597Z,10.50
2023-02-17T04:30:00.370Z,10.50
2023-02-17T04:32:28.163Z,10.50
2023-02-17T04:34:55.802Z,10.60
2023-02-17T04:37:23.648Z,10.50
2023-02-17T04:39:51.536Z,10.60
2023-02-17T04:42:19.366Z,10.60
2023-02-17T04:44:47.291Z,10.60
2023-02-17T04:47:15.076Z,10.60
2023-02-17T04:49:42.993Z,10.60
2023-02-17T04:52:10.735Z,10.60
2023-02-17T04:54:38.717Z,10.60
2023-02-17T04:57:06.437Z,10.60
2023-02-17T04:59:34.096Z,10.60
2023-02-17T05:02:01.891Z,10.60
2023-02-17T05:04:29.995Z,10.60
2023-02-17T05:06:57.943Z,10.60
2023-02-17T05:09:25.833Z,10.70
2023-02-17T05:11:53.817Z,10.60
2023-02-17T05:14:21.647Z,10.50
2023-02-17T05:16:49.472Z,10.50
2023-02-17T05:19:17.318Z,10.50
2023-02-17T05:21:45.326Z,10.60
2023-02-17T05:24:13.271Z,10.70
2023-02-17T05:26:41.023Z,10.60
2023-02-17T05:29:08.672Z,10.70
2023-02-17T05:31:36.846Z,10.70
2023-02-17T05:34:04.837Z,10.60
2023-02-17T05:36:32.575Z,10.70
2023-02-17T05:39:00.271Z,10.60
2023-02-17T05:41:29.857Z,10.70
2023-02-17T05:43:57.988Z,10.70
2023-02-17T05:46:25.736Z,10.60
2023-02-17T05:48:53.456Z,10.50
2023-02-17T05:51:21.198Z,10.60
2023-02-17T05:53:48.941Z,10.60
2023-02-17T05:56:17.154Z,10.60
2023-02-17T05:58:44.884Z,10.60
2023-02-17T06:01:13.503Z,10.60
2023-02-17T06:03:41.356Z,10.70
2023-02-17T06:06:09.429Z,10.60
2023-02-17T06:08:37.603Z,10.60
2023-02-17T06:11:05.719Z,10.60
2023-02-17T06:13:33.505Z,10.60
2023-02-17T06:16:01.799Z,10.60
2023-02-17T06:18:29.888Z,10.60
2023-02-17T06:20:58.838Z,10.60
2023-02-17T06:23:28.692Z,10.60
2023-02-17T06:25:56.673Z,10.70
2023-02-17T06:28:24.612Z,10.60
2023-02-17T06:30:52.525Z,10.60
2023-02-17T06:33:20.542Z,10.60
2023-02-17T06:35:53.159Z,10.60
2023-02-17T06:38:20.978Z,10.70
2023-02-17T06:40:48.821Z,10.60
2023-02-17T06:43:16.754Z,10.60
2023-02-17T06:45:45.302Z,10.60
2023-02-17T06:48:13.175Z,10.60
2023-02-17T06:50:41.251Z,10.70
2023-02-17T06:53:09.126Z,10.60
2023-02-17T06:55:39.068Z,10.70
2023-02-17T06:58:08.513Z,10.50
2023-02-17T07:00:36.306Z,10.40
2023-02-17T07:03:04.509Z,10.40
2023-02-17T07:05:35.329Z,10.30
2023-02-17T07:08:05.374Z,10.30
2023-02-17T07:10:33.923Z,10.30
2023-02-17T07:13:01.883Z,10.30
2023-02-17T07:15:30.102Z,10.30
2023-02-17T07:17:57.815Z,10.30
2023-02-17T07:20:25.512Z,10.30
2023-02-17T07:22:53.528Z,10.30
2023-02-17T07:25:21.319Z,10.30
2023-02-17T07:27:49.165Z,10.40
2023-02-17T07:30:17.830Z,10.50
2023-02-17T07:32:45.661Z,10.50
2023-02-17T07:35:13.491Z,10.50
2023-02-17T07:37:41.139Z,10.50
2023-02-17T07:40:09.589Z,10.60
2023-02-17T07:42:37.396Z,10.70
2023-02-17T07:45:07.293Z,10.80
2023-02-17T07:47:35.325Z,10.80
2023-02-17T07:50:03.354Z,10.80
2023-02-17T07:52:31.085Z,10.80
2023-02-17T07:54:58.927Z,10.80
2023-02-17T07:57:26.666Z,10.80
2023-02-17T07:59:54.282Z,10.90
2023-02-17T08:02:22.675Z,10.90
2023-02-17T08:04:52.862Z,10.90
2023-02-17T08:07:20.695Z,10.80
2023-02-17T08:10:06.929Z,10.90
2023-02-17T08:13:09.865Z,10.90
2023-02-17T08:15:37.925Z,10.90
2023-02-17T08:18:06.569Z,10.90
2023-02-17T08:20:35.331Z,11.00
2023-02-17T08:23:03.850Z,11.10
2023-02-17T08:25:36.679Z,11.10
2023-02-17T08:28:06.912Z,11.10
2023-02-17T08:30:38.497Z,11.10
2023-02-17T08:33:07.474Z,11.10
2023-02-17T08:35:35.312Z,11.10
2023-02-17T08:38:03.234Z,11.20
2023-02-17T08:40:31.026Z,11.20
2023-02-17T08:42:58.835Z,11.20
2023-02-17T08:45:26.701Z,11.20
2023-02-17T08:47:55.436Z,11.20
2023-02-17T08:50:24.103Z,11.30
2023-02-17T08:52:52.059Z,11.30
2023-02-17T08:55:20.496Z,11.40
2023-02-17T08:57:48.274Z,11.50
2023-02-17T09:00:19.124Z,11.60
2023-02-17T09:02:47.042Z,11.40
2023-02-17T09:05:15.830Z,11.50
2023-02-17T09:07:43.812Z,11.40
2023-02-17T09:10:14.777Z,11.40
2023-02-17T09:12:42.947Z,11.60
2023-02-17T09:15:10.974Z,11.70
2023-02-17T09:17:42.029Z,11.80
2023-02-17T09:20:24.012Z,11.80
2023-02-17T09:22:53.229Z,11.90
2023-02-17T09:25:21.286Z,12.00
2023-02-17T09:27:50.056Z,12.00
2023-02-17T09:30:18.208Z,12.10
2023-02-17T09:32:46.005Z,12.10
2023-02-17T09:35:18.613Z,12.00
2023-02-17T09:37:46.979Z,12.10
2023-02-17T09:40:43.743Z,12.10
2023-02-17T09:43:31.382Z,12.30
2023-02-17T09:46:20.187Z,12.40
2023-02-17T09:48:52.856Z,12.30
2023-02-17T09:52:00.479Z,12.10
2023-02-17T09:55:15.445Z,12.30
2023-02-17T09:58:36.665Z,12.30
2023-02-17T10:01:26.581Z,12.30
2023-02-17T10:04:19.895Z,12.30
2023-02-17T10:07:06.035Z,12.30
2023-02-17T10:09:49.488Z,12.20
2023-02-17T10:12:37.676Z,12.30
2023-02-17T10:15:35.164Z,12.30
2023-02-17T10:18:42.007Z,12.30
2023-02-17T10:21:28.714Z,12.40
2023-02-17T10:23:58.375Z,12.40
2023-02-17T10:27:15.678Z,12.30
2023-02-17T10:30:47.491Z,12.30
2023-02-17T10:33:42.861Z,12.40
2023-02-17T10:37:12.653Z,12.60
2023-02-17T10:39:57.559Z,12.60
2023-02-17T10:42:39.238Z,12.50
2023-02-17T10:45:43.867Z,12.50
2023-02-17T10:48:38.833Z,12.50
2023-02-17T10:51:18.131Z,12.60
2023-02-17T10:54:01.046Z,12.70
2023-02-17T10:56:56.115Z,12.80
2023-02-17T10:59:46.284Z,12.80
2023-02-17T11:02:42.170Z,12.80
2023-02-17T11:05:30.966Z,12.90
2023-02-17T11:08:25.572Z,12.80
2023-02-17T11:11:22.757Z,12.70
2023-02-17T11:14:08.242Z,12.80
2023-02-17T11:16:47.209Z,12.90
2023-02-17T11:19:35.861Z,12.90
2023-02-17T11:22:31.448Z,13.10
2023-02-17T11:25:29.737Z,13.20
2023-02-17T11:28:24.096Z,13.50
2023-02-17T11:31:00.319Z,13.50
2023-02-17T11:33:40.642Z,13.60
2023-02-17T11:36:32.564Z,13.70
2023-02-17T11:39:17.465Z,13.50
2023-02-17T11:41:45.777Z,13.40
2023-02-17T11:44:28.534Z,13.20
2023-02-17T11:47:27.851Z,13.30
2023-02-17T11:50:43.512Z,13.20
2023-02-17T11:53:49.728Z,13.10
2023-02-17T11:57:13.885Z,13.00
2023-02-17T12:00:23.010Z,13.10
2023-02-17T12:03:41.367Z,13.30
2023-02-17T12:06:40.056Z,13.50
2023-02-17T12:09:51.384Z,13.50
2023-02-17T12:13:32.246Z,13.70
2023-02-17T12:16:40.605Z,13.60
2023-02-17T12:20:05.058Z,13.60
2023-02-17T12:23:25.783Z,13.40
2023-02-17T12:26:55.573Z,13.60
2023-02-17T12:30:07.996Z,13.60
2023-02-17T12:33:06.582Z,13.50
2023-02-17T12:35:53.170Z,13.60
2023-02-17T12:38:57.913Z,13.60
2023-02-17T12:41:47.536Z,13.50
2023-02-17T12:44:34.379Z,13.40
2023-02-17T12:47:35.721Z,13.40
2023-02-17T12:50:31.387Z,13.40
2023-02-17T12:53:25.417Z,13.50
2023-02-17T12:56:05.089Z,13.40
2023-02-17T12:58:36.079Z,13.30
2023-02-17T13:01:19.529Z,13.30
2023-02-17T13:03:48.097Z,13.40
2023-02-17T13:06:44.445Z,13.40
2023-02-17T13:09:42.636Z,13.40
2023-02-17T13:12:37.477Z,13.40
2023-02-17T13:15:33.903Z,13.50
2023-02-17T13:18:43.742Z,13.50
2023-02-17T13:21:28.738Z,13.50
2023-02-17T13:24:34.811Z,13.40
2023-02-17T13:27:36.878Z,13.40
2023-02-17T13:30:22.910Z,13.40
2023-02-17T13:33:31.463Z,13.40
2023-02-17T13:35:59.433Z,13.30
2023-02-17T13:38:32.391Z,13.30
2023-02-17T13:41:07.145Z,13.30
2023-02-17T13:43:43.506Z,13.30
2023-02-17T13:46:27.541Z,13.30
2023-02-17T13:49:07.430Z,13.30
2023-02-17T13:51:35.620Z,13.30
2023-02-17T13:54:12.677Z,13.30
2023-02-17T13:56:40.916Z,13.20
2023-02-17T13:59:26.141Z,13.30
2023-02-17T14:02:01.159Z,13.20
2023-02-17T14:04:32.568Z,13.20
2023-02-17T14:07:05.725Z,13.20
2023-02-17T14:09:36.206Z,13.10
2023-02-17T14:12:26.162Z,13.10
2023-02-17T14:14:54.287Z,13.10
2023-02-17T14:17:33.128Z,13.10
2023-02-17T14:20:01.584Z,13.00
2023-02-17T14:22:35.400Z,12.90
2023-02-17T14:25:27.776Z,12.80
2023-02-17T14:27:56.510Z,12.70
2023-02-17T14:30:39.333Z,12.60
2023-02-17T14:33:17.327Z,12.40
2023-02-17T14:36:02.200Z,12.40
2023-02-17T14:38:41.559Z,12.20
2023-02-17T14:41:10.968Z,12.20
2023-02-17T14:43:38.836Z,12.10
2023-02-17T14:46:07.012Z,12.00
2023-02-17T14:48:34.929Z,12.00
2023-02-17T14:51:03.112Z,11.90
2023-02-17T14:53:38.840Z,11.80
2023-02-17T14:56:32.249Z,11.80
2023-02-17T14:59:00.247Z,11.70
2023-02-17T15:01:28.842Z,11.70
2023-02-17T15:03:56.826Z,11.70
2023-02-17T15:06:47.649Z,11.80
2023-02-17T15:09:30.214Z,11.80
2023-02-17T15:11:59.473Z,11.70
2023-02-17T15:14:27.312Z,11.70
2023-02-17T15:16:55.256Z,11.60
2023-02-17T15:19:24.819Z,11.50
2023-02-17T15:21:53.802Z,11.60
2023-02-17T15:24:33.386Z,11.60
2023-02-17T15:27:04.430Z,11.70
2023-02-17T15:29:33.255Z,11.70
2023-02-17T15:32:12.943Z,11.70
2023-02-17T15:34:40.703Z,11.70
2023-02-17T15:37:11.865Z,11.80
2023-02-17T15:39:39.555Z,11.80
2023-02-17T15:42:14.605Z,11.80
2023-02-17T15:44:50.691Z,11.80
2023-02-17T15:47:21.325Z,11.80
2023-02-17T15:49:49.230Z,11.90
2023-02-17T15:52:17.216Z,11.90
2023-02-17T15:54:45.500Z,11.90
2023-02-17T15:57:25.608Z,11.90
2023-02-17T15:59:57.804Z,12.00
2023-02-17T16:02:26.554Z,12.00
2023-02-17T16:04:54.507Z,12.00
2023-02-17T16:07:22.303Z,12.00
2023-02-17T16:09:50.094Z,12.00
2023-02-17T16:12:27.333Z,11.90
2023-02-17T16:14:58.050Z,11.90
2023-02-17T16:17:27.135Z,12.00
2023-02-17T16:19:54.980Z,11.90
2023-02-17T16:22:22.755Z,11.90
2023-02-17T16:24:50.396Z,12.00
2023-02-17T16:27:18.407Z,11.90
2023-02-17T16:29:46.220Z,11.90
2023-02-17T16:32:14.392Z,11.90
2023-02-17T16:34:42.929Z,11.90
2023-02-17T16:37:17.719Z,12.00
2023-02-17T16:39:46.686Z,11.90
2023-02-17T16:42:15.785Z,12.00
2023-02-17T16:44:44.287Z,12.00
2023-02-17T16:47:22.823Z,11.90
2023-02-17T16:49:51.090Z,11.90
2023-02-17T16:52:28.190Z,12.00
2023-02-17T16:54:56.004Z,12.00
2023-02-17T16:57:24.604Z,12.00
2023-02-17T16:59:52.572Z,11.90
2023-02-17T17:02:21.816Z,11.90
2023-02-17T17:04:51.152Z,11.90
2023-02-17T17:07:19.077Z,11.90
2023-02-17T17:10:06.875Z,12.10
2023-02-17T17:12:35.469Z,12.00
2023-02-17T17:15:03.932Z,11.90
2023-02-17T17:17:44.291Z,11.90
2023-02-17T17:20:31.024Z,11.90
2023-02-17T17:23:13.682Z,11.90
2023-02-17T17:25:47.013Z,11.90
2023-02-17T17:28:20.131Z,12.00
2023-02-17T17:30:49.954Z,11.90
2023-02-17T17:33:17.957Z,12.00
2023-02-17T17:35:45.603Z,11.90
2023-02-17T17:38:16.565Z,11.90
2023-02-17T17:40:53.496Z,11.90
2023-02-17T17:43:23.767Z,11.90
2023-02-17T17:45:52.924Z,11.90
2023-02-17T17:48:21.646Z,11.80
2023-02-17T17:50:50.460Z,11.80
2023-02-17T17:53:18.453Z,11.80
2023-02-17T17:55:48.319Z,11.80
2023-02-17T17:58:17.332Z,11.80
2023-02-17T18:00:45.119Z,11.80
2023-02-17T18:03:13.271Z,11.80
2023-02-17T18:05:41.293Z,11.80
2023-02-17T18:08:09.347Z,11.70
2023-02-17T18:10:41.018Z,11.60
2023-02-17T18:13:12.719Z,11.60
2023-02-17T18:15:43.311Z,11.60
2023-02-17T18:18:13.838Z,11.50
2023-02-17T18:20:42.069Z,11.50
2023-02-17T18:23:09.973Z,11.40
2023-02-17T18:25:38.085Z,11.40
2023-02-17T18:28:05.945Z,11.40
2023-02-17T18:30:34.558Z,11.40
2023-02-17T18:33:02.804Z,11.40
2023-02-17T18:35:35.161Z,11.40
2023-02-17T18:38:04.241Z,11.40
2023-02-17T18:40:32.413Z,11.40
2023-02-17T18:43:00.183Z,11.50
2023-02-17T18:45:28.283Z,11.50
2023-02-17T18:47:57.760Z,11.50
2023-02-17T18:50:26.473Z,11.50
2023-02-17T18:52:54.526Z,11.50
2023-02-17T18:55:22.416Z,11.50
2023-02-17T18:57:50.144Z,11.50
2023-02-17T19:00:18.620Z,11.60
2023-02-17T19:02:46.588Z,11.60
2023-02-17T19:05:17.622Z,11.70
2023-02-17T19:07:45.886Z,11.70
2023-02-17T19:10:15.024Z,11.70
2023-02-17T19:12:42.919Z,11.70
2023-02-17T19:15:14.079Z,11.80
2023-02-17T19:17:42.064Z,11.80
2023-02-17T19:20:11.467Z,11.70
2023-02-17T19:22:39.724Z,11.80
2023-02-17T19:25:08.740Z,11.80
2023-02-17T19:27:40.921Z,11.90
2023-02-17T19:30:11.907Z,11.80
2023-02-17T19:32:40.681Z,11.80
2023-02-17T19:35:11.497Z,11.80
2023-02-17T19:37:39.658Z,11.80
2023-02-17T19:40:08.773Z,11.80
2023-02-17T19:42:37.303Z,11.80
2023-02-17T19:45:07.490Z,11.90
2023-02-17T19:47:35.328Z,11.90
2023-02-17T19:50:04.206Z,11.90
2023-02-17T19:52:32.115Z,11.90
2023-02-17T19:55:00.237Z,11.90
2023-02-17T19:57:28.045Z,12.00
2023-02-17T19:59:56.102Z,12.10
2023-02-17T20:02:24.031Z,12.10
2023-02-17T20:04:52.079Z,12.10
2023-02-17T20:07:19.947Z,12.00
2023-02-17T20:09:47.693Z,12.00
2023-02-17T20:12:15.597Z,12.00
2023-02-17T20:14:45.636Z,11.90
2023-02-17T20:17:15.541Z,11.90
2023-02-17T20:19:43.596Z,11.90
2023-02-17T20:22:12.322Z,11.80
2023-02-17T20:24:42.052Z,11.80
2023-02-17T20:27:10.204Z,11.80
2023-02-17T20:29:38.194Z,11.80
2023-02-17T20:32:07.047Z,11.70
2023-02-17T20:34:39.573Z,11.50
2023-02-17T20:37:09.447Z,11.70
2023-02-17T20:39:42.104Z,11.50
2023-02-17T20:42:10.325Z,11.50
2023-02-17T20:44:39.397Z,11.50
2023-02-17T20:47:07.898Z,11.40
2023-02-17T20:49:36.379Z,11.40
2023-02-17T20:52:05.879Z,11.40
2023-02-17T20:54:34.820Z,11.30
2023-02-17T20:57:02.751Z,11.20
2023-02-17T20:59:30.475Z,10.90
2023-02-17T21:01:58.345Z,10.80
2023-02-17T21:04:26.285Z,10.80
2023-02-17T21:06:54.287Z,10.70
2023-02-17T21:09:22.271Z,10.60
2023-02-17T21:11:50.402Z,10.60
2023-02-17T21:14:18.455Z,10.50
2023-02-17T21:16:46.558Z,10.50
2023-02-17T21:19:14.882Z,10.50
2023-02-17T21:21:42.622Z,10.50
2023-02-17T21:24:17.512Z,10.50
2023-02-17T21:26:49.299Z,10.50
2023-02-17T21:29:22.466Z,10.50
2023-02-17T21:31:56.345Z,10.40
2023-02-17T21:34:28.247Z,10.40
2023-02-17T21:37:04.252Z,10.40
2023-02-17T21:39:38.591Z,10.40
2023-02-17T21:42:36.740Z,10.40
2023-02-17T21:45:10.912Z,10.40
2023-02-17T21:47:47.528Z,10.40
2023-02-17T21:50:27.989Z,10.40
2023-02-17T21:53:03.818Z,10.40
2023-02-17T21:55:37.471Z,10.30
2023-02-17T21:58:09.684Z,10.40
2023-02-17T22:00:42.711Z,10.40
2023-02-17T22:03:16.808Z,10.40
2023-02-17T22:05:50.320Z,10.30
2023-02-17T22:08:24.139Z,10.30
2023-02-17T22:11:00.524Z,10.30
2023-02-17T22:13:33.262Z,10.30
2023-02-17T22:16:06.240Z,10.20
2023-02-17T22:18:40.250Z,10.30
2023-02-17T22:21:19.704Z,10.30
2023-02-17T22:23:55.550Z,10.30
2023-02-17T22:26:32.613Z,10.30
2023-02-17T22:29:06.683Z,10.30
2023-02-17T22:31:40.419Z,10.20
2023-02-17T22:34:21.241Z,10.20
2023-02-17T22:36:54.371Z,10.20
2023-02-17T22:39:27.933Z,10.30
2023-02-17T22:42:18.754Z,10.20
2023-02-17T22:44:52.294Z,10.20
2023-02-17T22:47:25.383Z,10.20
2023-02-17T22:50:00.040Z,10.20
2023-02-17T22:52:33.338Z,10.30
2023-02-17T22:55:07.446Z,10.20
2023-02-17T22:57:39.908Z,10.20
2023-02-17T23:00:15.197Z,10.20
2023-02-17T23:02:49.125Z,10.30
2023-02-17T23:05:25.989Z,10.20
2023-02-17T23:08:04.933Z,10.20
2023-02-17T23:10:33.158Z,10.20
2023-02-17T23:13:01.090Z,10.20
2023-02-17T23:15:40.729Z,10.20
2023-02-17T23:18:18.696Z,10.20
2023-02-17T23:20:51.839Z,10.20
2023-02-17T23:23:21.364Z,10.20
2023-02-17T23:25:55.141Z,10.20
2023-02-17T23:28:26.396Z,10.20
2023-02-17T23:30:54.750Z,10.20
2023-02-17T23:33:25.227Z,10.20
2023-02-17T23:35:53.164Z,10.20
2023-02-17T23:38:22.300Z,10.20
2023-02-17T23:40:53.957Z,10.20
2023-02-17T23:43:24.164Z,10.20
2023-02-17T23:46:02.266Z,10.20
2023-02-17T23:48:38.050Z,10.10
2023-02-17T23:51:06.892Z,10.20
2023-02-17T23:53:35.286Z,10.20
2023-02-17T23:56:30.067Z,10.20
2023-02-17T23:58:58.728Z,10.20
